sensor_id;sensor_type;location;lat;lon;timestamp;P1;durP1;ratioP1;P2;durP2;ratioP2
68438;SDS011;55421;51.600;5.718;2022-08-26T00:01:11;20.40;;;14.00;;
68438;SDS011;55421;51.600;5.718;2022-08-26T00:03:38;22.10;;;12.70;;
68438;SDS011;55421;51.600;5.718;2022-08-26T00:06:06;19.00;;;13.10;;
68438;SDS011;55421;51.600;5.718;2022-08-26T00:08:34;19.30;;;13.20;;
68438;SDS011;55421;51.600;5.718;2022-08-26T00:11:02;16.60;;;12.00;;
68438;SDS011;55421;51.600;5.718;2022-08-26T00:13:29;21.00;;;13.80;;
68438;SDS011;55421;51.600;5.718;2022-08-26T00:15:56;15.70;;;10.90;;
68438;SDS011;55421;51.600;5.718;2022-08-26T00:18:23;12.40;;;10.00;;
68438;SDS011;55421;51.600;5.718;2022-08-26T00:20:50;15.70;;;10.30;;
68438;SDS011;55421;51.600;5.718;2022-08-26T00:23:16;14.00;;;9.70;;
68438;SDS011;55421;51.600;5.718;2022-08-26T00:25:44;16.90;;;10.00;;
68438;SDS011;55421;51.600;5.718;2022-08-26T00:28:11;15.80;;;9.50;;
68438;SDS011;55421;51.600;5.718;2022-08-26T00:30:38;15.10;;;9.30;;
68438;SDS011;55421;51.600;5.718;2022-08-26T00:33:05;19.70;;;9.70;;
68438;SDS011;55421;51.600;5.718;2022-08-26T00:35:33;6.40;;;5.70;;
68438;SDS011;55421;51.600;5.718;2022-08-26T00:38:01;14.90;;;7.10;;
68438;SDS011;55421;51.600;5.718;2022-08-26T00:40:31;10.10;;;6.40;;
68438;SDS011;55421;51.600;5.718;2022-08-26T00:43:01;9.70;;;5.40;;
68438;SDS011;55421;51.600;5.718;2022-08-26T00:45:38;11.10;;;5.80;;
68438;SDS011;55421;51.600;5.718;2022-08-26T00:48:10;9.90;;;4.60;;
68438;SDS011;55421;51.600;5.718;2022-08-26T00:50:40;8.70;;;5.80;;
68438;SDS011;55421;51.600;5.718;2022-08-26T00:53:11;8.40;;;4.50;;
68438;SDS011;55421;51.600;5.718;2022-08-26T00:56:03;10.00;;;5.00;;
68438;SDS011;55421;51.600;5.718;2022-08-26T00:58:38;8.90;;;4.80;;
68438;SDS011;55421;51.600;5.718;2022-08-26T01:03:37;8.60;;;4.40;;
68438;SDS011;55421;51.600;5.718;2022-08-26T01:06:04;7.30;;;4.20;;
68438;SDS011;55421;51.600;5.718;2022-08-26T01:08:32;10.80;;;3.90;;
68438;SDS011;55421;51.600;5.718;2022-08-26T01:10:59;8.70;;;3.90;;
68438;SDS011;55421;51.600;5.718;2022-08-26T01:13:28;6.80;;;3.40;;
68438;SDS011;55421;51.600;5.718;2022-08-26T01:15:58;6.90;;;4.10;;
68438;SDS011;55421;51.600;5.718;2022-08-26T01:18:27;5.60;;;3.30;;
68438;SDS011;55421;51.600;5.718;2022-08-26T01:23:45;7.40;;;3.70;;
68438;SDS011;55421;51.600;5.718;2022-08-26T01:26:24;8.20;;;3.70;;
68438;SDS011;55421;51.600;5.718;2022-08-26T01:28:56;6.40;;;3.50;;
68438;SDS011;55421;51.600;5.718;2022-08-26T01:34:21;10.50;;;4.60;;
68438;SDS011;55421;51.600;5.718;2022-08-26T01:36:56;6.80;;;3.60;;
68438;SDS011;55421;51.600;5.718;2022-08-26T01:39:28;9.90;;;4.80;;
68438;SDS011;55421;51.600;5.718;2022-08-26T01:41:57;8.30;;;3.90;;
68438;SDS011;55421;51.600;5.718;2022-08-26T01:44:27;8.00;;;3.60;;
68438;SDS011;55421;51.600;5.718;2022-08-26T01:46:58;6.80;;;4.10;;
68438;SDS011;55421;51.600;5.718;2022-08-26T01:49:27;5.90;;;3.70;;
68438;SDS011;55421;51.600;5.718;2022-08-26T01:51:55;5.60;;;3.90;;
68438;SDS011;55421;51.600;5.718;2022-08-26T01:54:23;6.60;;;3.50;;
68438;SDS011;55421;51.600;5.718;2022-08-26T01:56:51;4.50;;;3.50;;
68438;SDS011;55421;51.600;5.718;2022-08-26T01:59:22;5.70;;;4.10;;
68438;SDS011;55421;51.600;5.718;2022-08-26T02:01:50;7.70;;;4.20;;
68438;SDS011;55421;51.600;5.718;2022-08-26T02:04:26;6.70;;;3.90;;
68438;SDS011;55421;51.600;5.718;2022-08-26T02:06:56;6.60;;;4.00;;
68438;SDS011;55421;51.600;5.718;2022-08-26T02:09:23;5.90;;;4.00;;
68438;SDS011;55421;51.600;5.718;2022-08-26T02:11:50;7.90;;;4.00;;
68438;SDS011;55421;51.600;5.718;2022-08-26T02:14:23;5.60;;;3.50;;
68438;SDS011;55421;51.600;5.718;2022-08-26T02:16:54;7.20;;;3.90;;
68438;SDS011;55421;51.600;5.718;2022-08-26T02:19:25;7.30;;;3.90;;
68438;SDS011;55421;51.600;5.718;2022-08-26T02:21:57;8.00;;;3.60;;
68438;SDS011;55421;51.600;5.718;2022-08-26T02:24:29;6.10;;;3.40;;
68438;SDS011;55421;51.600;5.718;2022-08-26T02:27:12;6.90;;;3.60;;
68438;SDS011;55421;51.600;5.718;2022-08-26T02:29:42;5.90;;;3.60;;
68438;SDS011;55421;51.600;5.718;2022-08-26T02:32:13;15.70;;;4.00;;
68438;SDS011;55421;51.600;5.718;2022-08-26T02:34:39;7.30;;;3.30;;
68438;SDS011;55421;51.600;5.718;2022-08-26T02:37:08;7.90;;;3.20;;
68438;SDS011;55421;51.600;5.718;2022-08-26T02:39:37;10.50;;;3.30;;
68438;SDS011;55421;51.600;5.718;2022-08-26T02:42:05;5.80;;;3.50;;
68438;SDS011;55421;51.600;5.718;2022-08-26T02:44:32;4.60;;;3.20;;
68438;SDS011;55421;51.600;5.718;2022-08-26T02:46:59;12.70;;;3.20;;
68438;SDS011;55421;51.600;5.718;2022-08-26T02:49:26;7.00;;;3.20;;
68438;SDS011;55421;51.600;5.718;2022-08-26T02:51:55;9.10;;;3.20;;
68438;SDS011;55421;51.600;5.718;2022-08-26T02:54:22;6.00;;;2.70;;
68438;SDS011;55421;51.600;5.718;2022-08-26T02:56:49;5.70;;;2.80;;
68438;SDS011;55421;51.600;5.718;2022-08-26T02:59:16;5.90;;;3.00;;
68438;SDS011;55421;51.600;5.718;2022-08-26T03:01:43;4.30;;;3.00;;
68438;SDS011;55421;51.600;5.718;2022-08-26T03:04:14;7.80;;;2.80;;
68438;SDS011;55421;51.600;5.718;2022-08-26T03:06:43;7.50;;;2.90;;
68438;SDS011;55421;51.600;5.718;2022-08-26T03:09:10;9.10;;;2.90;;
68438;SDS011;55421;51.600;5.718;2022-08-26T03:11:36;8.00;;;2.70;;
68438;SDS011;55421;51.600;5.718;2022-08-26T03:14:03;8.20;;;2.90;;
68438;SDS011;55421;51.600;5.718;2022-08-26T03:16:36;6.90;;;2.80;;
68438;SDS011;55421;51.600;5.718;2022-08-26T03:19:04;7.00;;;2.90;;
68438;SDS011;55421;51.600;5.718;2022-08-26T03:21:33;10.80;;;3.50;;
68438;SDS011;55421;51.600;5.718;2022-08-26T03:24:00;4.90;;;2.80;;
68438;SDS011;55421;51.600;5.718;2022-08-26T03:26:27;5.50;;;3.20;;
68438;SDS011;55421;51.600;5.718;2022-08-26T03:28:55;6.10;;;3.00;;
68438;SDS011;55421;51.600;5.718;2022-08-26T03:31:40;5.70;;;3.20;;
68438;SDS011;55421;51.600;5.718;2022-08-26T03:34:07;7.50;;;2.80;;
68438;SDS011;55421;51.600;5.718;2022-08-26T03:36:33;4.90;;;2.70;;
68438;SDS011;55421;51.600;5.718;2022-08-26T03:39:00;6.30;;;3.20;;
68438;SDS011;55421;51.600;5.718;2022-08-26T03:41:26;9.60;;;2.60;;
68438;SDS011;55421;51.600;5.718;2022-08-26T03:43:53;7.60;;;3.00;;
68438;SDS011;55421;51.600;5.718;2022-08-26T03:46:19;6.30;;;2.80;;
68438;SDS011;55421;51.600;5.718;2022-08-26T03:48:45;9.30;;;2.70;;
68438;SDS011;55421;51.600;5.718;2022-08-26T03:51:14;4.50;;;2.50;;
68438;SDS011;55421;51.600;5.718;2022-08-26T03:53:43;6.60;;;2.40;;
68438;SDS011;55421;51.600;5.718;2022-08-26T03:56:10;6.20;;;2.40;;
68438;SDS011;55421;51.600;5.718;2022-08-26T03:58:36;7.20;;;2.30;;
68438;SDS011;55421;51.600;5.718;2022-08-26T04:01:03;8.70;;;2.10;;
68438;SDS011;55421;51.600;5.718;2022-08-26T04:03:30;4.40;;;2.30;;
68438;SDS011;55421;51.600;5.718;2022-08-26T04:06:16;4.50;;;2.30;;
68438;SDS011;55421;51.600;5.718;2022-08-26T04:08:42;5.50;;;2.40;;
68438;SDS011;55421;51.600;5.718;2022-08-26T04:11:16;9.00;;;2.40;;
68438;SDS011;55421;51.600;5.718;2022-08-26T04:13:45;7.80;;;2.10;;
68438;SDS011;55421;51.600;5.718;2022-08-26T04:16:14;4.80;;;1.90;;
68438;SDS011;55421;51.600;5.718;2022-08-26T04:18:42;8.10;;;2.50;;
68438;SDS011;55421;51.600;5.718;2022-08-26T04:21:10;5.90;;;2.30;;
68438;SDS011;55421;51.600;5.718;2022-08-26T04:23:37;6.30;;;1.90;;
68438;SDS011;55421;51.600;5.718;2022-08-26T04:26:04;3.80;;;1.80;;
68438;SDS011;55421;51.600;5.718;2022-08-26T04:28:31;5.40;;;1.80;;
68438;SDS011;55421;51.600;5.718;2022-08-26T04:30:57;5.10;;;1.90;;
68438;SDS011;55421;51.600;5.718;2022-08-26T04:33:24;4.30;;;1.80;;
68438;SDS011;55421;51.600;5.718;2022-08-26T04:36:01;8.30;;;1.80;;
68438;SDS011;55421;51.600;5.718;2022-08-26T04:38:28;6.10;;;1.90;;
68438;SDS011;55421;51.600;5.718;2022-08-26T04:40:55;5.50;;;1.70;;
68438;SDS011;55421;51.600;5.718;2022-08-26T04:43:23;6.00;;;1.70;;
68438;SDS011;55421;51.600;5.718;2022-08-26T04:46:00;4.50;;;1.80;;
68438;SDS011;55421;51.600;5.718;2022-08-26T04:48:31;7.50;;;2.00;;
68438;SDS011;55421;51.600;5.718;2022-08-26T04:50:58;5.10;;;1.90;;
68438;SDS011;55421;51.600;5.718;2022-08-26T04:53:26;11.90;;;2.00;;
68438;SDS011;55421;51.600;5.718;2022-08-26T04:55:53;6.70;;;1.80;;
68438;SDS011;55421;51.600;5.718;2022-08-26T04:58:21;5.80;;;1.80;;
68438;SDS011;55421;51.600;5.718;2022-08-26T05:00:52;4.70;;;1.80;;
68438;SDS011;55421;51.600;5.718;2022-08-26T05:03:21;5.30;;;1.60;;
68438;SDS011;55421;51.600;5.718;2022-08-26T05:05:49;6.00;;;1.60;;
68438;SDS011;55421;51.600;5.718;2022-08-26T05:08:17;6.40;;;1.90;;
68438;SDS011;55421;51.600;5.718;2022-08-26T05:10:48;4.80;;;1.80;;
68438;SDS011;55421;51.600;5.718;2022-08-26T05:13:19;2.70;;;1.40;;
68438;SDS011;55421;51.600;5.718;2022-08-26T05:15:47;3.80;;;1.50;;
68438;SDS011;55421;51.600;5.718;2022-08-26T05:18:16;4.10;;;1.40;;
68438;SDS011;55421;51.600;5.718;2022-08-26T05:20:47;5.60;;;2.10;;
68438;SDS011;55421;51.600;5.718;2022-08-26T05:23:16;4.00;;;1.40;;
68438;SDS011;55421;51.600;5.718;2022-08-26T05:25:45;4.70;;;1.40;;
68438;SDS011;55421;51.600;5.718;2022-08-26T05:28:15;4.50;;;1.40;;
68438;SDS011;55421;51.600;5.718;2022-08-26T05:30:42;6.60;;;1.50;;
68438;SDS011;55421;51.600;5.718;2022-08-26T05:33:10;3.70;;;1.20;;
68438;SDS011;55421;51.600;5.718;2022-08-26T05:35:37;5.00;;;1.30;;
68438;SDS011;55421;51.600;5.718;2022-08-26T05:38:08;4.10;;;1.20;;
68438;SDS011;55421;51.600;5.718;2022-08-26T05:40:39;6.30;;;1.40;;
68438;SDS011;55421;51.600;5.718;2022-08-26T05:43:10;4.20;;;1.60;;
68438;SDS011;55421;51.600;5.718;2022-08-26T05:45:40;4.00;;;1.50;;
68438;SDS011;55421;51.600;5.718;2022-08-26T05:48:11;3.50;;;1.50;;
68438;SDS011;55421;51.600;5.718;2022-08-26T05:50:41;6.10;;;1.50;;
68438;SDS011;55421;51.600;5.718;2022-08-26T05:53:15;2.50;;;1.30;;
68438;SDS011;55421;51.600;5.718;2022-08-26T05:55:49;5.50;;;1.30;;
68438;SDS011;55421;51.600;5.718;2022-08-26T05:58:19;4.10;;;1.20;;
68438;SDS011;55421;51.600;5.718;2022-08-26T06:00:59;3.90;;;1.30;;
68438;SDS011;55421;51.600;5.718;2022-08-26T06:03:29;4.90;;;1.10;;
68438;SDS011;55421;51.600;5.718;2022-08-26T06:05:56;4.40;;;1.50;;
68438;SDS011;55421;51.600;5.718;2022-08-26T06:08:23;4.20;;;1.20;;
68438;SDS011;55421;51.600;5.718;2022-08-26T06:10:52;4.20;;;1.30;;
68438;SDS011;55421;51.600;5.718;2022-08-26T06:13:24;7.50;;;1.30;;
68438;SDS011;55421;51.600;5.718;2022-08-26T06:15:53;4.90;;;1.60;;
68438;SDS011;55421;51.600;5.718;2022-08-26T06:18:24;3.30;;;1.50;;
68438;SDS011;55421;51.600;5.718;2022-08-26T06:21:09;4.50;;;1.60;;
68438;SDS011;55421;51.600;5.718;2022-08-26T06:23:41;9.20;;;1.80;;
68438;SDS011;55421;51.600;5.718;2022-08-26T06:26:28;7.10;;;2.10;;
68438;SDS011;55421;51.600;5.718;2022-08-26T06:28:55;5.20;;;1.80;;
68438;SDS011;55421;51.600;5.718;2022-08-26T06:31:23;4.20;;;1.60;;
68438;SDS011;55421;51.600;5.718;2022-08-26T06:33:50;4.00;;;1.90;;
68438;SDS011;55421;51.600;5.718;2022-08-26T06:36:21;8.90;;;1.90;;
68438;SDS011;55421;51.600;5.718;2022-08-26T06:38:54;5.10;;;1.80;;
68438;SDS011;55421;51.600;5.718;2022-08-26T06:41:24;3.90;;;1.80;;
68438;SDS011;55421;51.600;5.718;2022-08-26T06:43:51;6.90;;;1.90;;
68438;SDS011;55421;51.600;5.718;2022-08-26T06:46:19;4.20;;;1.90;;
68438;SDS011;55421;51.600;5.718;2022-08-26T06:48:47;5.40;;;1.80;;
68438;SDS011;55421;51.600;5.718;2022-08-26T06:51:16;6.40;;;2.10;;
68438;SDS011;55421;51.600;5.718;2022-08-26T06:53:46;4.50;;;1.30;;
68438;SDS011;55421;51.600;5.718;2022-08-26T06:56:18;5.40;;;1.60;;
68438;SDS011;55421;51.600;5.718;2022-08-26T06:58:47;5.00;;;1.30;;
68438;SDS011;55421;51.600;5.718;2022-08-26T07:01:36;4.20;;;1.20;;
68438;SDS011;55421;51.600;5.718;2022-08-26T07:04:06;4.80;;;1.40;;
68438;SDS011;55421;51.600;5.718;2022-08-26T07:06:36;10.50;;;1.50;;
68438;SDS011;55421;51.600;5.718;2022-08-26T07:09:06;3.30;;;1.10;;
68438;SDS011;55421;51.600;5.718;2022-08-26T07:11:38;8.00;;;1.50;;
68438;SDS011;55421;51.600;5.718;2022-08-26T07:14:05;5.60;;;1.10;;
68438;SDS011;55421;51.600;5.718;2022-08-26T07:16:32;5.70;;;1.00;;
68438;SDS011;55421;51.600;5.718;2022-08-26T07:18:59;2.80;;;1.10;;
68438;SDS011;55421;51.600;5.718;2022-08-26T07:21:27;4.10;;;1.30;;
68438;SDS011;55421;51.600;5.718;2022-08-26T07:23:53;6.70;;;1.60;;
68438;SDS011;55421;51.600;5.718;2022-08-26T07:26:23;5.00;;;1.20;;
68438;SDS011;55421;51.600;5.718;2022-08-26T07:28:53;7.40;;;1.10;;
68438;SDS011;55421;51.600;5.718;2022-08-26T07:31:22;7.70;;;1.20;;
68438;SDS011;55421;51.600;5.718;2022-08-26T07:36:20;6.20;;;1.50;;
68438;SDS011;55421;51.600;5.718;2022-08-26T07:38:47;4.60;;;1.10;;
68438;SDS011;55421;51.600;5.718;2022-08-26T07:41:16;3.90;;;1.30;;
68438;SDS011;55421;51.600;5.718;2022-08-26T07:43:45;5.30;;;1.20;;
68438;SDS011;55421;51.600;5.718;2022-08-26T07:46:12;2.30;;;1.00;;
68438;SDS011;55421;51.600;5.718;2022-08-26T07:48:46;3.90;;;1.10;;
68438;SDS011;55421;51.600;5.718;2022-08-26T07:51:16;3.10;;;1.10;;
68438;SDS011;55421;51.600;5.718;2022-08-26T07:53:44;4.30;;;1.20;;
68438;SDS011;55421;51.600;5.718;2022-08-26T07:56:13;6.00;;;1.40;;
68438;SDS011;55421;51.600;5.718;2022-08-26T07:58:40;4.80;;;1.50;;
68438;SDS011;55421;51.600;5.718;2022-08-26T08:01:06;5.60;;;1.10;;
68438;SDS011;55421;51.600;5.718;2022-08-26T08:03:33;2.50;;;1.10;;
68438;SDS011;55421;51.600;5.718;2022-08-26T08:06:00;4.80;;;1.30;;
68438;SDS011;55421;51.600;5.718;2022-08-26T08:08:26;6.50;;;1.50;;
68438;SDS011;55421;51.600;5.718;2022-08-26T08:10:53;8.60;;;1.50;;
68438;SDS011;55421;51.600;5.718;2022-08-26T08:13:21;6.20;;;1.30;;
68438;SDS011;55421;51.600;5.718;2022-08-26T08:15:49;7.70;;;1.50;;
68438;SDS011;55421;51.600;5.718;2022-08-26T08:18:16;6.30;;;1.40;;
68438;SDS011;55421;51.600;5.718;2022-08-26T08:20:44;3.20;;;1.20;;
68438;SDS011;55421;51.600;5.718;2022-08-26T08:23:11;6.80;;;1.20;;
68438;SDS011;55421;51.600;5.718;2022-08-26T08:25:38;4.50;;;1.00;;
68438;SDS011;55421;51.600;5.718;2022-08-26T08:28:04;4.50;;;1.40;;
68438;SDS011;55421;51.600;5.718;2022-08-26T08:30:31;3.70;;;1.10;;
68438;SDS011;55421;51.600;5.718;2022-08-26T08:32:57;4.20;;;1.60;;
68438;SDS011;55421;51.600;5.718;2022-08-26T08:35:24;4.90;;;1.40;;
68438;SDS011;55421;51.600;5.718;2022-08-26T08:37:51;5.90;;;1.50;;
68438;SDS011;55421;51.600;5.718;2022-08-26T08:40:24;5.00;;;1.40;;
68438;SDS011;55421;51.600;5.718;2022-08-26T08:45:39;5.60;;;1.00;;
68438;SDS011;55421;51.600;5.718;2022-08-26T08:51:09;7.10;;;1.40;;
68438;SDS011;55421;51.600;5.718;2022-08-26T08:53:45;5.00;;;1.30;;
68438;SDS011;55421;51.600;5.718;2022-08-26T08:56:36;6.00;;;1.30;;
68438;SDS011;55421;51.600;5.718;2022-08-26T08:59:23;3.40;;;1.40;;
68438;SDS011;55421;51.600;5.718;2022-08-26T09:02:06;3.30;;;1.20;;
68438;SDS011;55421;51.600;5.718;2022-08-26T09:07:47;8.10;;;1.30;;
68438;SDS011;55421;51.600;5.718;2022-08-26T09:10:30;5.00;;;1.80;;
68438;SDS011;55421;51.600;5.718;2022-08-26T09:13:09;13.20;;;1.30;;
68438;SDS011;55421;51.600;5.718;2022-08-26T09:18:38;2.90;;;1.00;;
68438;SDS011;55421;51.600;5.718;2022-08-26T09:21:16;5.50;;;1.30;;
68438;SDS011;55421;51.600;5.718;2022-08-26T09:23:49;7.90;;;1.40;;
68438;SDS011;55421;51.600;5.718;2022-08-26T09:26:18;5.30;;;1.30;;
68438;SDS011;55421;51.600;5.718;2022-08-26T09:28:53;4.60;;;1.50;;
68438;SDS011;55421;51.600;5.718;2022-08-26T09:31:26;4.20;;;1.70;;
68438;SDS011;55421;51.600;5.718;2022-08-26T09:34:11;5.80;;;1.00;;
68438;SDS011;55421;51.600;5.718;2022-08-26T09:36:44;7.30;;;1.20;;
68438;SDS011;55421;51.600;5.718;2022-08-26T09:39:40;5.60;;;1.20;;
68438;SDS011;55421;51.600;5.718;2022-08-26T09:45:13;5.30;;;1.30;;
68438;SDS011;55421;51.600;5.718;2022-08-26T09:48:00;4.90;;;1.00;;
68438;SDS011;55421;51.600;5.718;2022-08-26T09:53:24;5.60;;;1.10;;
68438;SDS011;55421;51.600;5.718;2022-08-26T09:56:14;5.80;;;1.40;;
68438;SDS011;55421;51.600;5.718;2022-08-26T09:58:45;7.00;;;1.40;;
68438;SDS011;55421;51.600;5.718;2022-08-26T10:01:27;7.40;;;1.20;;
68438;SDS011;55421;51.600;5.718;2022-08-26T10:04:11;4.50;;;1.50;;
68438;SDS011;55421;51.600;5.718;2022-08-26T10:06:53;6.10;;;1.30;;
68438;SDS011;55421;51.600;5.718;2022-08-26T10:09:22;4.90;;;1.30;;
68438;SDS011;55421;51.600;5.718;2022-08-26T10:11:53;5.50;;;1.60;;
68438;SDS011;55421;51.600;5.718;2022-08-26T10:14:30;6.80;;;1.60;;
68438;SDS011;55421;51.600;5.718;2022-08-26T10:17:10;8.80;;;1.40;;
68438;SDS011;55421;51.600;5.718;2022-08-26T10:20:31;5.30;;;1.20;;
68438;SDS011;55421;51.600;5.718;2022-08-26T10:23:09;7.70;;;1.50;;
68438;SDS011;55421;51.600;5.718;2022-08-26T10:29:09;7.10;;;1.30;;
68438;SDS011;55421;51.600;5.718;2022-08-26T10:33:53;9.60;;;1.30;;
68438;SDS011;55421;51.600;5.718;2022-08-26T10:36:22;6.70;;;1.40;;
68438;SDS011;55421;51.600;5.718;2022-08-26T10:39:14;4.10;;;0.90;;
68438;SDS011;55421;51.600;5.718;2022-08-26T10:42:04;8.10;;;1.40;;
68438;SDS011;55421;51.600;5.718;2022-08-26T10:44:36;13.60;;;1.80;;
68438;SDS011;55421;51.600;5.718;2022-08-26T10:47:19;4.90;;;1.20;;
68438;SDS011;55421;51.600;5.718;2022-08-26T10:49:52;6.50;;;1.20;;
68438;SDS011;55421;51.600;5.718;2022-08-26T10:52:33;7.00;;;1.40;;
68438;SDS011;55421;51.600;5.718;2022-08-26T10:55:19;6.70;;;1.50;;
68438;SDS011;55421;51.600;5.718;2022-08-26T10:57:58;3.70;;;1.00;;
68438;SDS011;55421;51.600;5.718;2022-08-26T11:00:53;8.30;;;1.30;;
68438;SDS011;55421;51.600;5.718;2022-08-26T11:04:05;4.70;;;1.20;;
68438;SDS011;55421;51.600;5.718;2022-08-26T11:06:34;8.50;;;1.60;;
68438;SDS011;55421;51.600;5.718;2022-08-26T11:09:04;6.20;;;1.10;;
68438;SDS011;55421;51.600;5.718;2022-08-26T11:16:48;9.90;;;1.40;;
68438;SDS011;55421;51.600;5.718;2022-08-26T11:22:25;7.40;;;1.10;;
68438;SDS011;55421;51.600;5.718;2022-08-26T11:37:48;5.80;;;2.00;;
68438;SDS011;55421;51.600;5.718;2022-08-26T11:40:28;12.00;;;3.10;;
68438;SDS011;55421;51.600;5.718;2022-08-26T11:42:59;6.60;;;1.60;;
68438;SDS011;55421;51.600;5.718;2022-08-26T11:45:41;5.00;;;1.80;;
68438;SDS011;55421;51.600;5.718;2022-08-26T11:51:19;4.80;;;1.20;;
68438;SDS011;55421;51.600;5.718;2022-08-26T11:53:48;3.10;;;1.00;;
68438;SDS011;55421;51.600;5.718;2022-08-26T11:56:27;6.70;;;1.40;;
68438;SDS011;55421;51.600;5.718;2022-08-26T11:59:02;4.00;;;1.30;;
68438;SDS011;55421;51.600;5.718;2022-08-26T12:01:37;3.40;;;1.10;;
68438;SDS011;55421;51.600;5.718;2022-08-26T12:04:09;7.20;;;1.60;;
68438;SDS011;55421;51.600;5.718;2022-08-26T12:06:46;5.80;;;1.40;;
68438;SDS011;55421;51.600;5.718;2022-08-26T12:09:30;8.60;;;1.50;;
68438;SDS011;55421;51.600;5.718;2022-08-26T12:12:30;5.70;;;1.40;;
68438;SDS011;55421;51.600;5.718;2022-08-26T12:17:37;8.50;;;1.50;;
68438;SDS011;55421;51.600;5.718;2022-08-26T12:20:16;7.00;;;1.20;;
68438;SDS011;55421;51.600;5.718;2022-08-26T12:28:50;7.10;;;1.20;;
68438;SDS011;55421;51.600;5.718;2022-08-26T12:31:33;5.10;;;1.60;;
68438;SDS011;55421;51.600;5.718;2022-08-26T12:34:06;5.10;;;1.10;;
68438;SDS011;55421;51.600;5.718;2022-08-26T12:36:42;5.50;;;1.10;;
68438;SDS011;55421;51.600;5.718;2022-08-26T12:39:29;3.90;;;0.90;;
68438;SDS011;55421;51.600;5.718;2022-08-26T12:42:00;2.10;;;0.80;;
68438;SDS011;55421;51.600;5.718;2022-08-26T12:44:46;4.60;;;1.20;;
68438;SDS011;55421;51.600;5.718;2022-08-26T12:47:34;4.70;;;1.20;;
68438;SDS011;55421;51.600;5.718;2022-08-26T12:50:09;3.30;;;1.20;;
68438;SDS011;55421;51.600;5.718;2022-08-26T12:52:58;5.10;;;1.30;;
68438;SDS011;55421;51.600;5.718;2022-08-26T12:55:48;6.50;;;1.20;;
68438;SDS011;55421;51.600;5.718;2022-08-26T12:58:35;7.00;;;1.30;;
68438;SDS011;55421;51.600;5.718;2022-08-26T13:03:36;2.80;;;0.90;;
68438;SDS011;55421;51.600;5.718;2022-08-26T13:08:57;4.50;;;1.10;;
68438;SDS011;55421;51.600;5.718;2022-08-26T13:11:27;5.40;;;1.10;;
68438;SDS011;55421;51.600;5.718;2022-08-26T13:14:12;4.10;;;1.10;;
68438;SDS011;55421;51.600;5.718;2022-08-26T13:16:41;3.90;;;1.10;;
68438;SDS011;55421;51.600;5.718;2022-08-26T13:19:11;2.80;;;0.90;;
68438;SDS011;55421;51.600;5.718;2022-08-26T13:21:43;3.90;;;1.40;;
68438;SDS011;55421;51.600;5.718;2022-08-26T13:24:24;4.30;;;1.00;;
68438;SDS011;55421;51.600;5.718;2022-08-26T13:26:59;7.10;;;1.00;;
68438;SDS011;55421;51.600;5.718;2022-08-26T13:29:27;9.50;;;1.10;;
68438;SDS011;55421;51.600;5.718;2022-08-26T13:31:54;3.60;;;0.80;;
68438;SDS011;55421;51.600;5.718;2022-08-26T13:34:21;2.70;;;1.00;;
68438;SDS011;55421;51.600;5.718;2022-08-26T13:36:51;2.60;;;1.00;;
68438;SDS011;55421;51.600;5.718;2022-08-26T13:39:20;5.40;;;1.00;;
68438;SDS011;55421;51.600;5.718;2022-08-26T13:41:47;5.70;;;1.30;;
68438;SDS011;55421;51.600;5.718;2022-08-26T13:44:14;4.30;;;1.00;;
68438;SDS011;55421;51.600;5.718;2022-08-26T13:46:41;7.10;;;0.80;;
68438;SDS011;55421;51.600;5.718;2022-08-26T13:49:07;3.10;;;1.00;;
68438;SDS011;55421;51.600;5.718;2022-08-26T13:51:35;2.80;;;0.90;;
68438;SDS011;55421;51.600;5.718;2022-08-26T13:54:03;4.30;;;1.00;;
68438;SDS011;55421;51.600;5.718;2022-08-26T13:56:31;5.20;;;1.00;;
68438;SDS011;55421;51.600;5.718;2022-08-26T13:58:59;4.20;;;1.10;;
68438;SDS011;55421;51.600;5.718;2022-08-26T14:01:27;3.00;;;0.90;;
68438;SDS011;55421;51.600;5.718;2022-08-26T14:03:56;6.50;;;1.10;;
68438;SDS011;55421;51.600;5.718;2022-08-26T14:06:23;5.50;;;0.80;;
68438;SDS011;55421;51.600;5.718;2022-08-26T14:08:50;3.40;;;0.80;;
68438;SDS011;55421;51.600;5.718;2022-08-26T14:11:16;3.90;;;0.90;;
68438;SDS011;55421;51.600;5.718;2022-08-26T14:13:43;5.40;;;1.10;;
68438;SDS011;55421;51.600;5.718;2022-08-26T14:16:15;3.30;;;0.80;;
68438;SDS011;55421;51.600;5.718;2022-08-26T14:19:06;1.80;;;0.80;;
68438;SDS011;55421;51.600;5.718;2022-08-26T14:21:36;4.70;;;0.80;;
68438;SDS011;55421;51.600;5.718;2022-08-26T14:24:05;4.40;;;0.70;;
68438;SDS011;55421;51.600;5.718;2022-08-26T14:26:32;8.30;;;1.00;;
68438;SDS011;55421;51.600;5.718;2022-08-26T14:29:00;3.30;;;0.90;;
68438;SDS011;55421;51.600;5.718;2022-08-26T14:31:31;3.10;;;0.80;;
68438;SDS011;55421;51.600;5.718;2022-08-26T14:34:03;0.90;;;0.60;;
68438;SDS011;55421;51.600;5.718;2022-08-26T14:36:31;2.20;;;0.60;;
68438;SDS011;55421;51.600;5.718;2022-08-26T14:39:04;5.60;;;0.70;;
68438;SDS011;55421;51.600;5.718;2022-08-26T14:41:45;3.90;;;0.80;;
68438;SDS011;55421;51.600;5.718;2022-08-26T14:44:15;5.10;;;1.00;;
68438;SDS011;55421;51.600;5.718;2022-08-26T14:46:48;6.40;;;1.00;;
68438;SDS011;55421;51.600;5.718;2022-08-26T14:49:16;4.60;;;0.60;;
68438;SDS011;55421;51.600;5.718;2022-08-26T14:51:44;2.70;;;0.80;;
68438;SDS011;55421;51.600;5.718;2022-08-26T14:54:12;2.60;;;0.60;;
68438;SDS011;55421;51.600;5.718;2022-08-26T14:59:11;5.40;;;1.10;;
68438;SDS011;55421;51.600;5.718;2022-08-26T15:01:39;3.80;;;0.80;;
68438;SDS011;55421;51.600;5.718;2022-08-26T15:04:06;5.30;;;1.00;;
68438;SDS011;55421;51.600;5.718;2022-08-26T15:06:32;5.60;;;0.80;;
68438;SDS011;55421;51.600;5.718;2022-08-26T15:09:00;4.10;;;1.20;;
68438;SDS011;55421;51.600;5.718;2022-08-26T15:11:27;4.70;;;0.90;;
68438;SDS011;55421;51.600;5.718;2022-08-26T15:13:54;4.90;;;0.70;;
68438;SDS011;55421;51.600;5.718;2022-08-26T15:16:21;4.30;;;0.80;;
68438;SDS011;55421;51.600;5.718;2022-08-26T15:18:48;1.60;;;0.80;;
68438;SDS011;55421;51.600;5.718;2022-08-26T15:21:18;5.20;;;0.90;;
68438;SDS011;55421;51.600;5.718;2022-08-26T15:23:46;1.10;;;0.60;;
68438;SDS011;55421;51.600;5.718;2022-08-26T15:26:15;1.20;;;0.70;;
68438;SDS011;55421;51.600;5.718;2022-08-26T15:28:43;1.50;;;0.70;;
68438;SDS011;55421;51.600;5.718;2022-08-26T15:31:10;3.80;;;0.70;;
68438;SDS011;55421;51.600;5.718;2022-08-26T15:33:37;4.30;;;1.00;;
68438;SDS011;55421;51.600;5.718;2022-08-26T15:36:05;1.20;;;0.60;;
68438;SDS011;55421;51.600;5.718;2022-08-26T15:38:36;2.10;;;1.10;;
68438;SDS011;55421;51.600;5.718;2022-08-26T15:41:06;2.90;;;0.80;;
68438;SDS011;55421;51.600;5.718;2022-08-26T15:43:35;2.50;;;0.90;;
68438;SDS011;55421;51.600;5.718;2022-08-26T15:46:03;3.20;;;1.10;;
68438;SDS011;55421;51.600;5.718;2022-08-26T15:48:30;3.20;;;1.00;;
68438;SDS011;55421;51.600;5.718;2022-08-26T15:50:59;3.90;;;0.90;;
68438;SDS011;55421;51.600;5.718;2022-08-26T15:53:28;1.80;;;0.90;;
68438;SDS011;55421;51.600;5.718;2022-08-26T15:55:57;4.60;;;1.20;;
68438;SDS011;55421;51.600;5.718;2022-08-26T15:58:25;2.70;;;0.90;;
68438;SDS011;55421;51.600;5.718;2022-08-26T16:00:54;4.10;;;0.90;;
68438;SDS011;55421;51.600;5.718;2022-08-26T16:03:22;10.10;;;1.00;;
68438;SDS011;55421;51.600;5.718;2022-08-26T16:05:49;3.90;;;1.00;;
68438;SDS011;55421;51.600;5.718;2022-08-26T16:08:15;2.90;;;0.90;;
68438;SDS011;55421;51.600;5.718;2022-08-26T16:10:44;3.40;;;0.90;;
68438;SDS011;55421;51.600;5.718;2022-08-26T16:13:12;5.40;;;1.20;;
68438;SDS011;55421;51.600;5.718;2022-08-26T16:15:39;2.70;;;0.80;;
68438;SDS011;55421;51.600;5.718;2022-08-26T16:18:07;4.50;;;1.00;;
68438;SDS011;55421;51.600;5.718;2022-08-26T16:20:35;4.00;;;1.00;;
68438;SDS011;55421;51.600;5.718;2022-08-26T16:23:03;2.40;;;0.70;;
68438;SDS011;55421;51.600;5.718;2022-08-26T16:25:30;2.40;;;0.90;;